St Annes, United Kingdom
Current Conditions -  °F | °C
As of 4:20 PM on Thursday 18 Dec 2014 (Local Time) from EGNH Reporting Station
Scattered Clouds Scattered Clouds  
Wind Chill: 52°   Ceiling: Unl
Heat Index: 52°   Visibility: 4mi
Dew Point: 50°   Wind: 28mph
Humidity: 94%   Direction: 240°WSW
Pressure: 29.56"   Gusts: NA
Location:  53.75°N, 3.02°W
Report Text: EGNH 181620Z 24024KT 7000 FEW006 SCT025 11/10 Q1001
Loading
Personal Weather Stations






























Interactive Weather Map New forecast layout! Learn more

10-Day Weather Forecast

Advertisements
Track Severe Weather on mobile